Time;durP1;ratioP1;P1;durP2;ratioP2;P2;SDS_P1;SDS_P2;PMS_P1;PMS_P2;Temp;Humidity;BMP_temperature;BMP_pressure;BME280_temperature;BME280_humidity;BME280_pressure;Samples;Min_cycle;Max_cycle;Signal;HPM_P1;HPM_P2
2021/04/21 00:01:23;;;;;;;30.80;27.42;;;9.60;99.90;;;;;;5013802;28;20249;-75
2021/04/21 00:03:53;;;;;;;34.03;27.63;;;9.60;99.90;;;;;;5031382;28;20268;-76
2021/04/21 00:06:21;;;;;;;35.25;26.23;;;9.50;99.90;;;;;;5031060;28;20209;-74
2021/04/21 00:08:49;;;;;;;29.42;25.38;;;9.60;99.90;;;;;;5030464;28;20674;-76
2021/04/21 00:11:16;;;;;;;30.73;25.63;;;9.50;99.90;;;;;;5029491;28;20193;-75
2021/04/21 00:13:44;;;;;;;38.30;29.45;;;9.60;99.90;;;;;;5014103;28;20189;-75
2021/04/21 00:16:14;;;;;;;35.92;26.58;;;9.50;99.90;;;;;;5030323;28;20212;-74
2021/04/21 00:18:44;;;;;;;32.13;25.73;;;9.50;99.90;;;;;;5019112;28;20224;-75
2021/04/21 00:21:12;;;;;;;33.92;28.83;;;9.50;99.90;;;;;;5030211;28;20521;-76
2021/04/21 00:23:40;;;;;;;35.78;28.02;;;9.40;99.90;;;;;;5031632;28;20188;-76
2021/04/21 00:26:11;;;;;;;35.92;27.98;;;9.40;99.90;;;;;;5030837;28;20568;-75
2021/04/21 00:28:39;;;;;;;32.95;27.52;;;9.40;99.90;;;;;;5014125;28;20219;-75
2021/04/21 00:31:08;;;;;;;35.95;27.50;;;9.30;99.90;;;;;;5030186;28;20200;-77
2021/04/21 00:33:37;;;;;;;30.58;24.90;;;9.30;99.90;;;;;;5013304;28;20199;-76
2021/04/21 00:36:06;;;;;;;34.83;29.23;;;9.30;99.90;;;;;;5030023;28;20698;-75
2021/04/21 00:38:35;;;;;;;35.40;27.65;;;9.30;99.90;;;;;;5016169;28;20574;-75
2021/04/21 00:41:15;;;;;;;36.58;27.67;;;9.30;99.90;;;;;;5019707;28;20657;-75
2021/04/21 00:44:21;;;;;;;33.88;27.35;;;9.40;99.90;;;;;;5054090;28;20660;-75
2021/04/21 00:46:57;;;;;;;37.10;28.38;;;9.30;99.90;;;;;;5050139;28;20294;-76
2021/04/21 00:49:45;;;;;;;32.90;27.00;;;9.30;99.90;;;;;;5041275;28;20181;-75
2021/04/21 00:52:18;;;;;;;36.53;28.95;;;9.30;99.90;;;;;;5014910;28;20242;-75
2021/04/21 00:55:01;;;;;;;33.95;27.50;;;9.30;99.90;;;;;;5025315;28;20181;-75
2021/04/21 00:57:39;;;;;;;35.13;28.42;;;9.30;99.90;;;;;;5016636;28;20239;-74
2021/04/21 01:00:14;;;;;;;34.17;27.90;;;9.20;99.90;;;;;;5033699;28;20554;-75
2021/04/21 01:02:57;;;;;;;41.03;29.40;;;9.30;99.90;;;;;;5033347;28;20220;-75
2021/04/21 01:05:28;;;;;;;37.65;29.85;;;9.20;99.90;;;;;;5044142;28;20220;-75
2021/04/21 01:08:03;;;;;;;36.63;29.10;;;9.20;99.90;;;;;;5036467;28;20226;-75
2021/04/21 01:10:37;;;;;;;41.97;30.98;;;9.20;99.90;;;;;;5022044;28;20220;-75
2021/04/21 01:13:04;;;;;;;37.00;28.80;;;9.10;99.90;;;;;;5013311;28;20217;-76
2021/04/21 01:15:33;;;;;;;36.20;27.48;;;9.10;99.90;;;;;;5013524;28;20206;-77
2021/04/21 01:18:03;;;;;;;32.90;26.65;;;9.10;99.90;;;;;;5018813;28;20230;-74
2021/04/21 01:20:51;;;;;;;37.08;26.92;;;9.00;99.90;;;;;;5053072;28;20193;-77
2021/04/21 01:23:44;;;;;;;33.05;25.65;;;9.00;99.90;;;;;;5053925;28;20307;-76
2021/04/21 01:26:16;;;;;;;34.65;28.40;;;8.80;99.90;;;;;;5015400;28;20292;-74
2021/04/21 01:28:49;;;;;;;28.45;24.73;;;8.70;99.90;;;;;;5013506;28;20220;-75
2021/04/21 01:31:18;;;;;;;30.88;26.45;;;8.60;99.90;;;;;;5012698;28;20316;-75
2021/04/21 01:33:48;;;;;;;30.65;25.35;;;8.40;99.90;;;;;;5029847;28;20185;-77
2021/04/21 01:36:19;;;;;;;29.98;25.90;;;8.30;99.90;;;;;;4998545;28;20218;-76
2021/04/21 01:38:47;;;;;;;31.50;27.33;;;8.30;99.90;;;;;;5013199;28;20186;-75
2021/04/21 01:41:20;;;;;;;33.97;28.25;;;8.30;99.90;;;;;;5030521;28;20264;-77
2021/04/21 01:44:07;;;;;;;37.88;27.45;;;8.20;99.90;;;;;;5016466;28;20190;-75
2021/04/21 01:46:39;;;;;;;30.08;26.65;;;8.10;99.90;;;;;;5033413;28;20690;-75
2021/04/21 01:49:10;;;;;;;35.03;26.70;;;8.10;99.90;;;;;;5014713;28;20197;-76
2021/04/21 01:51:40;;;;;;;34.45;26.42;;;8.10;99.90;;;;;;5033417;28;20703;-75
2021/04/21 01:54:14;;;;;;;35.40;27.98;;;8.10;99.90;;;;;;5033927;28;20264;-76
2021/04/21 01:56:56;;;;;;;31.33;26.88;;;8.10;99.90;;;;;;5011918;28;20249;-77
2021/04/21 01:59:35;;;;;;;35.38;28.65;;;8.10;99.90;;;;;;5012901;28;20189;-75
2021/04/21 02:02:11;;;;;;;33.35;26.15;;;8.10;99.90;;;;;;5012162;28;20229;-75
2021/04/21 02:05:03;;;;;;;31.73;26.35;;;8.00;99.90;;;;;;5006239;28;20655;-76
2021/04/21 02:07:38;;;;;;;31.95;26.75;;;8.00;99.90;;;;;;5015161;28;20583;-76
2021/04/21 02:10:23;;;;;;;33.50;28.98;;;8.10;99.90;;;;;;5015375;28;20216;-75
2021/04/21 02:13:14;;;;;;;33.13;26.42;;;8.10;99.90;;;;;;5033248;28;20227;-75
2021/04/21 02:15:56;;;;;;;32.30;26.20;;;8.10;99.90;;;;;;5033622;28;20216;-76
2021/04/21 02:18:56;;;;;;;34.50;27.30;;;8.00;99.90;;;;;;5028210;28;20295;-76
2021/04/21 02:22:07;;;;;;;34.25;28.05;;;8.00;99.90;;;;;;5012186;28;20288;-76
2021/04/21 02:25:01;;;;;;;36.28;29.10;;;7.90;99.90;;;;;;4986467;28;20192;-74
2021/04/21 02:27:39;;;;;;;32.63;27.77;;;7.80;99.90;;;;;;5031509;28;20216;-75
2021/04/21 02:30:28;;;;;;;36.97;29.25;;;7.90;99.90;;;;;;5033397;28;20181;-77
2021/04/21 02:33:43;;;;;;;36.13;29.75;;;8.00;99.90;;;;;;5031466;28;20697;-75
2021/04/21 02:36:16;;;;;;;41.00;30.15;;;8.00;99.90;;;;;;5015135;28;20232;-75
2021/04/21 02:39:04;;;;;;;38.05;30.40;;;8.00;99.90;;;;;;5032099;28;20240;-75
2021/04/21 02:42:01;;;;;;;37.92;30.08;;;8.00;99.90;;;;;;5050515;28;20299;-75
2021/04/21 02:44:55;;;;;;;41.03;31.40;;;8.10;99.90;;;;;;5052967;28;20180;-75
2021/04/21 02:47:30;;;;;;;37.88;29.92;;;8.10;99.90;;;;;;5024073;28;20220;-76
2021/04/21 02:50:09;;;;;;;39.47;31.73;;;8.10;99.90;;;;;;5014584;28;20222;-75
2021/04/21 02:52:44;;;;;;;37.05;31.35;;;8.10;99.90;;;;;;5031010;28;20209;-75
2021/04/21 02:55:31;;;;;;;37.60;29.73;;;8.20;99.90;;;;;;5038411;28;20289;-76
2021/04/21 02:58:05;;;;;;;37.65;31.48;;;8.20;99.90;;;;;;5034407;28;20637;-76
2021/04/21 03:00:51;;;;;;;37.67;29.13;;;8.20;99.90;;;;;;5016625;28;20273;-75
2021/04/21 03:03:49;;;;;;;36.55;28.27;;;8.10;99.90;;;;;;5013805;28;20299;-75
2021/04/21 03:06:37;;;;;;;39.97;27.13;;;8.20;99.90;;;;;;5024802;28;20236;-75
2021/04/21 03:09:17;;;;;;;39.90;30.48;;;8.30;99.90;;;;;;5014780;28;20200;-74
2021/04/21 03:11:46;;;;;;;36.47;29.73;;;8.20;99.90;;;;;;5013205;28;20263;-75
2021/04/21 03:14:22;;;;;;;33.40;29.48;;;8.20;99.90;;;;;;5030919;28;20641;-76
2021/04/21 03:17:10;;;;;;;44.10;31.90;;;8.10;99.90;;;;;;5033081;28;20291;-75
2021/04/21 03:19:51;;;;;;;46.22;32.03;;;8.10;99.90;;;;;;5016076;28;20280;-77
2021/04/21 03:22:20;;;;;;;46.03;34.33;;;8.00;99.90;;;;;;5031879;28;20325;-75
2021/04/21 03:24:58;;;;;;;39.63;31.38;;;8.10;99.90;;;;;;5031742;28;20185;-75
2021/04/21 03:27:30;;;;;;;37.60;30.45;;;8.20;99.90;;;;;;5031984;28;20307;-75
2021/04/21 03:30:01;;;;;;;40.53;30.52;;;8.20;99.90;;;;;;5032083;28;20177;-76
2021/04/21 03:32:33;;;;;;;40.80;31.30;;;8.20;99.90;;;;;;5031724;28;20228;-75
2021/04/21 03:35:01;;;;;;;42.35;31.60;;;8.10;99.90;;;;;;5010606;28;20198;-75
2021/04/21 03:37:36;;;;;;;48.92;34.45;;;8.20;99.90;;;;;;5010471;28;20232;-75
2021/04/21 03:40:04;;;;;;;41.45;31.60;;;8.20;99.90;;;;;;4995319;28;20668;-76
2021/04/21 03:42:32;;;;;;;47.25;33.50;;;8.20;99.90;;;;;;5010544;28;20229;-75
2021/04/21 03:45:00;;;;;;;39.28;32.00;;;8.10;99.90;;;;;;5010949;28;20604;-75
2021/04/21 03:47:28;;;;;;;36.25;27.38;;;8.00;99.90;;;;;;5011779;28;20221;-75
2021/04/21 03:49:56;;;;;;;33.97;28.40;;;7.80;99.90;;;;;;5011341;28;20217;-74
2021/04/21 03:52:26;;;;;;;34.78;26.17;;;7.70;99.90;;;;;;5011617;28;20225;-75
2021/04/21 03:54:57;;;;;;;34.05;26.42;;;7.60;99.90;;;;;;5022650;28;20192;-75
2021/04/21 03:57:26;;;;;;;29.15;25.13;;;7.50;99.90;;;;;;5050823;28;20248;-77
2021/04/21 03:59:53;;;;;;;35.25;26.73;;;7.40;99.90;;;;;;5034126;28;20215;-77
2021/04/21 04:02:22;;;;;;;38.85;27.10;;;7.40;99.90;;;;;;5033310;28;20291;-77
2021/04/21 04:04:56;;;;;;;32.47;25.63;;;7.30;99.90;;;;;;5013909;28;20198;-76
2021/04/21 04:07:26;;;;;;;33.40;26.30;;;7.20;99.90;;;;;;5020544;28;20220;-78
2021/04/21 04:09:53;;;;;;;29.88;24.60;;;7.10;99.90;;;;;;5036485;28;20216;-76
2021/04/21 04:12:24;;;;;;;37.70;25.95;;;7.10;99.90;;;;;;5035475;28;20311;-77
2021/04/21 04:14:54;;;;;;;34.97;29.23;;;7.00;99.90;;;;;;5055885;28;20176;-76
2021/04/21 04:17:24;;;;;;;36.17;27.80;;;7.00;99.90;;;;;;5053744;28;20597;-77
2021/04/21 04:19:53;;;;;;;34.35;28.27;;;7.00;99.90;;;;;;5037953;28;20200;-77
2021/04/21 04:22:22;;;;;;;36.55;29.67;;;7.00;99.90;;;;;;5017211;28;20608;-76
2021/04/21 04:24:57;;;;;;;33.95;27.50;;;7.00;99.90;;;;;;5033112;28;20192;-76
2021/04/21 04:27:26;;;;;;;35.88;30.02;;;7.00;99.90;;;;;;5034887;28;20224;-77
2021/04/21 04:29:54;;;;;;;41.35;30.25;;;7.00;99.90;;;;;;5034576;28;20705;-75
2021/04/21 04:32:24;;;;;;;31.73;28.15;;;7.10;99.90;;;;;;5033651;28;20721;-77
2021/04/21 04:34:52;;;;;;;36.97;27.30;;;7.10;99.90;;;;;;5034906;28;20586;-78
2021/04/21 04:37:21;;;;;;;42.97;33.15;;;7.10;99.90;;;;;;5034977;28;20315;-79
2021/04/21 04:39:48;;;;;;;36.05;29.17;;;7.10;99.90;;;;;;5017118;28;20352;-77
2021/04/21 04:42:15;;;;;;;42.03;32.78;;;7.10;99.90;;;;;;5033694;28;20287;-75
2021/04/21 04:44:45;;;;;;;39.20;31.33;;;7.20;99.90;;;;;;5033869;28;20200;-78
2021/04/21 04:47:45;;;;;;;42.33;30.20;;;7.20;99.90;;;;;;5034578;28;20307;-79
2021/04/21 04:50:20;;;;;;;43.58;30.33;;;7.20;99.90;;;;;;5017543;28;20188;-77
2021/04/21 04:52:55;;;;;;;42.78;31.10;;;7.20;99.90;;;;;;5032959;28;20244;-77
2021/04/21 04:55:24;;;;;;;44.00;32.17;;;7.30;99.90;;;;;;5033420;28;20213;-76
2021/04/21 04:57:56;;;;;;;43.38;30.98;;;7.30;99.90;;;;;;5021521;28;20295;-76
2021/04/21 05:00:25;;;;;;;41.78;31.20;;;7.30;99.90;;;;;;5034857;28;20181;-75
2021/04/21 05:03:14;;;;;;;42.38;32.28;;;7.30;99.90;;;;;;5033438;28;20229;-75
2021/04/21 05:05:43;;;;;;;41.88;32.90;;;7.30;99.90;;;;;;5048498;28;20217;-75
2021/04/21 05:08:16;;;;;;;46.28;31.85;;;7.30;99.90;;;;;;5036105;28;20236;-77
2021/04/21 05:11:02;;;;;;;46.67;32.80;;;7.30;99.90;;;;;;5017263;28;20216;-76
2021/04/21 05:13:38;;;;;;;41.38;32.15;;;7.30;99.90;;;;;;5016810;28;20221;-76
2021/04/21 05:16:05;;;;;;;48.90;32.85;;;7.40;99.90;;;;;;5032881;28;20207;-77
2021/04/21 05:18:34;;;;;;;39.53;30.95;;;7.50;99.90;;;;;;5032994;28;20196;-76
2021/04/21 05:21:19;;;;;;;37.75;32.42;;;7.50;99.90;;;;;;5033275;28;20185;-74
2021/04/21 05:24:53;;;;;;;43.17;33.17;;;7.50;99.90;;;;;;5032691;28;20216;-77
2021/04/21 05:27:57;;;;;;;42.38;32.55;;;7.50;99.90;;;;;;5012853;28;20706;-75
2021/04/21 05:31:00;;;;;;;43.53;32.75;;;7.50;99.90;;;;;;5013327;28;20284;-77
2021/04/21 05:33:46;;;;;;;41.35;32.65;;;7.50;99.90;;;;;;4988123;28;20212;-74
2021/04/21 05:36:30;;;;;;;42.50;33.20;;;7.50;99.90;;;;;;5027229;28;20637;-77
2021/04/21 05:39:11;;;;;;;48.05;34.15;;;7.50;99.90;;;;;;5014621;28;20181;-76
2021/04/21 05:42:05;;;;;;;53.63;35.38;;;7.60;99.90;;;;;;5051558;28;20240;-75
2021/04/21 05:45:09;;;;;;;53.85;37.50;;;7.60;99.90;;;;;;5017406;28;20240;-75
2021/04/21 05:47:51;;;;;;;52.72;36.72;;;7.70;99.90;;;;;;5014500;28;20307;-76
2021/04/21 05:50:42;;;;;;;50.20;33.85;;;7.80;99.90;;;;;;5016513;28;20227;-74
2021/04/21 05:53:29;;;;;;;50.90;37.22;;;7.80;99.90;;;;;;5012514;28;20260;-75
2021/04/21 05:56:33;;;;;;;55.90;37.67;;;7.90;99.90;;;;;;5026582;28;20223;-76
2021/04/21 05:59:20;;;;;;;51.97;37.13;;;8.00;99.90;;;;;;5032524;28;20213;-77
2021/04/21 06:01:48;;;;;;;50.50;37.00;;;8.10;99.90;;;;;;5032089;28;20321;-77
2021/04/21 06:04:20;;;;;;;59.83;38.17;;;8.10;99.90;;;;;;5031900;28;20196;-75
2021/04/21 06:06:47;;;;;;;44.67;37.15;;;8.20;99.90;;;;;;5015394;28;20594;-77
2021/04/21 06:09:13;;;;;;;47.60;35.00;;;8.40;99.90;;;;;;5033348;28;20186;-77
2021/04/21 06:11:40;;;;;;;44.28;35.38;;;8.30;99.90;;;;;;5051626;28;20641;-75
2021/04/21 06:14:09;;;;;;;49.10;36.88;;;8.40;99.90;;;;;;5052363;28;20184;-76
2021/04/21 06:16:37;;;;;;;48.92;36.42;;;8.50;99.90;;;;;;5034928;28;20216;-77
2021/04/21 06:19:09;;;;;;;47.60;35.85;;;8.50;99.90;;;;;;5042059;28;20551;-75
2021/04/21 06:21:40;;;;;;;43.25;34.60;;;8.50;99.90;;;;;;5015191;28;20221;-75
2021/04/21 06:24:24;;;;;;;47.67;34.70;;;8.50;99.90;;;;;;5032468;28;20177;-77
2021/04/21 06:26:51;;;;;;;48.72;39.15;;;8.50;99.90;;;;;;5011977;28;20248;-76
2021/04/21 06:29:18;;;;;;;48.88;37.20;;;8.60;99.90;;;;;;5012603;28;20181;-76
2021/04/21 06:31:49;;;;;;;54.45;39.58;;;8.70;99.90;;;;;;5013279;28;20246;-75
2021/04/21 06:34:16;;;;;;;54.25;39.65;;;8.80;99.90;;;;;;5017970;28;20205;-75
2021/04/21 06:36:55;;;;;;;57.28;41.13;;;9.10;99.90;;;;;;5012110;28;20229;-75
2021/04/21 06:39:22;;;;;;;53.65;41.28;;;9.00;99.90;;;;;;5014437;28;20209;-75
2021/04/21 06:42:04;;;;;;;58.30;42.17;;;9.10;99.90;;;;;;5030613;28;20254;-76
2021/04/21 06:44:45;;;;;;;60.33;39.90;;;9.30;99.90;;;;;;4999100;28;20280;-75
2021/04/21 06:47:19;;;;;;;57.72;41.78;;;9.30;99.90;;;;;;5014837;28;20229;-75
2021/04/21 06:50:01;;;;;;;58.97;43.60;;;9.40;99.90;;;;;;5030747;28;20196;-76
2021/04/21 06:52:38;;;;;;;62.78;42.40;;;9.50;99.90;;;;;;5052394;28;20788;-77
2021/04/21 06:55:09;;;;;;;52.85;42.10;;;9.50;99.90;;;;;;5023569;28;20213;-78
2021/04/21 06:57:36;;;;;;;56.53;41.78;;;9.60;99.90;;;;;;5011190;28;20329;-75
2021/04/21 07:00:12;;;;;;;52.22;41.33;;;9.60;99.90;;;;;;5012858;28;20515;-76
2021/04/21 07:02:48;;;;;;;49.97;39.13;;;9.70;99.90;;;;;;5014964;28;20220;-78
2021/04/21 07:05:32;;;;;;;50.17;38.28;;;9.80;99.90;;;;;;5022452;28;20245;-77
2021/04/21 07:08:13;;;;;;;56.30;40.63;;;10.00;99.90;;;;;;5030844;28;20237;-77
2021/04/21 07:10:57;;;;;;;56.22;44.15;;;10.00;99.90;;;;;;5010971;28;20199;-75
2021/04/21 07:13:31;;;;;;;54.50;40.38;;;10.10;99.90;;;;;;5012270;28;20225;-77
2021/04/21 07:16:03;;;;;;;52.30;40.03;;;10.10;99.90;;;;;;4995034;28;20575;-75
2021/04/21 07:18:31;;;;;;;57.92;40.22;;;;;;;;;;5003539;28;20261;-77
2021/04/21 07:21:00;;;;;;;61.03;43.10;;;10.40;99.90;;;;;;5014482;28;20191;-76
2021/04/21 07:23:29;;;;;;;52.28;41.47;;;10.40;99.90;;;;;;5014451;28;20830;-77
2021/04/21 07:25:56;;;;;;;64.97;43.97;;;10.50;99.90;;;;;;5014204;28;20568;-77
2021/04/21 07:28:24;;;;;;;49.73;38.87;;;10.50;99.90;;;;;;5014274;28;20460;-75
2021/04/21 07:30:54;;;;;;;51.50;43.10;;;10.60;99.90;;;;;;5030972;28;20515;-76
2021/04/21 07:33:35;;;;;;;53.20;42.60;;;10.60;99.90;;;;;;5031695;28;20522;-78
2021/04/21 07:36:10;;;;;;;56.10;41.50;;;10.70;99.90;;;;;;5031968;28;21035;-77
2021/04/21 07:38:43;;;;;;;52.27;43.50;;;10.70;99.90;;;;;;5030721;28;20472;-75
2021/04/21 07:41:15;;;;;;;59.30;44.57;;;10.70;99.90;;;;;;5036609;28;20446;-77
2021/04/21 07:43:46;;;;;;;61.03;43.80;;;10.70;99.90;;;;;;5030711;28;20464;-75
2021/04/21 07:46:22;;;;;;;58.47;46.03;;;10.70;99.90;;;;;;5013574;28;20537;-76
2021/04/21 07:48:50;;;;;;;57.27;44.20;;;10.80;99.90;;;;;;5032060;28;20419;-76
2021/04/21 07:51:24;;;;;;;60.40;45.93;;;10.90;99.90;;;;;;5010518;28;20453;-75
2021/04/21 07:53:58;;;;;;;67.33;47.77;;;10.90;99.90;;;;;;5011308;28;20523;-78
2021/04/21 07:56:33;;;;;;;68.40;49.10;;;10.90;99.90;;;;;;5030426;28;20481;-77
2021/04/21 07:59:17;;;;;;;60.30;45.83;;;11.00;99.90;;;;;;5050538;28;20491;-76
2021/04/21 08:01:44;;;;;;;64.73;45.80;;;11.10;99.90;;;;;;5033261;28;20474;-77
2021/04/21 08:04:18;;;;;;;66.60;48.07;;;11.20;99.90;;;;;;5014067;28;20458;-77
2021/04/21 08:06:50;;;;;;;70.33;47.83;;;11.20;99.90;;;;;;5010289;28;20475;-77
2021/04/21 08:09:22;;;;;;;63.27;45.27;;;11.20;99.90;;;;;;5013099;28;20424;-77
2021/04/21 08:12:07;;;;;;;62.87;48.90;;;11.20;99.90;;;;;;5031336;28;20513;-77
2021/04/21 08:14:43;;;;;;;59.47;46.07;;;11.20;99.90;;;;;;5030785;28;20908;-78
2021/04/21 08:17:11;;;;;;;63.33;46.90;;;11.20;99.90;;;;;;5029965;28;20482;-77
2021/04/21 08:19:42;;;;;;;58.37;45.03;;;11.20;99.90;;;;;;5030008;28;20502;-77
2021/04/21 08:22:09;;;;;;;59.60;48.50;;;11.30;99.90;;;;;;5029783;28;20464;-78
2021/04/21 08:24:45;;;;;;;58.73;46.37;;;11.40;99.90;;;;;;5030066;28;20475;-78
2021/04/21 08:27:16;;;;;;;59.87;44.70;;;11.40;99.90;;;;;;5029922;28;20873;-78
2021/04/21 08:29:44;;;;;;;55.77;44.53;;;11.50;99.90;;;;;;5013825;28;20440;-77
2021/04/21 08:32:22;;;;;;;58.43;45.90;;;11.50;99.90;;;;;;5029147;28;20560;-77
2021/04/21 08:34:50;;;;;;;56.10;45.23;;;11.60;99.90;;;;;;5029937;28;20436;-80
2021/04/21 08:37:20;;;;;;;56.83;46.60;;;11.70;99.90;;;;;;5012482;28;21016;-78
2021/04/21 08:39:47;;;;;;;58.93;45.93;;;11.70;99.90;;;;;;5030843;28;20443;-79
2021/04/21 08:42:14;;;;;;;54.97;46.73;;;11.80;99.90;;;;;;5029818;28;20499;-78
2021/04/21 08:44:42;;;;;;;57.23;46.93;;;11.80;99.90;;;;;;5030191;28;20424;-78
2021/04/21 08:47:11;;;;;;;65.60;49.43;;;11.90;99.90;;;;;;5031115;28;20862;-78
2021/04/21 08:49:39;;;;;;;57.67;48.57;;;12.10;99.90;;;;;;5030773;28;20802;-76
2021/04/21 08:52:10;;;;;;;62.37;48.23;;;12.10;99.90;;;;;;5030807;28;20472;-79
2021/04/21 08:54:40;;;;;;;57.63;44.63;;;12.20;99.90;;;;;;5034179;28;20836;-76
2021/04/21 08:57:07;;;;;;;56.60;46.50;;;12.60;99.90;;;;;;5033069;28;20473;-77
2021/04/21 08:59:34;;;;;;;56.60;45.53;;;12.80;99.90;;;;;;5016836;28;20432;-78
2021/04/21 09:02:00;;;;;;;52.33;41.17;;;13.20;99.90;;;;;;5034013;28;20454;-79
2021/04/21 09:04:27;;;;;;;52.57;42.10;;;13.70;99.90;;;;;;5034791;28;20439;-78
2021/04/21 09:06:53;;;;;;;47.17;40.50;;;14.10;99.90;;;;;;5016725;28;20842;-78
2021/04/21 09:09:20;;;;;;;42.27;37.83;;;14.20;99.90;;;;;;5033105;28;20448;-77
2021/04/21 09:11:47;;;;;;;50.17;39.60;;;14.10;99.90;;;;;;5034561;28;20869;-74
2021/04/21 09:14:14;;;;;;;39.80;34.10;;;14.00;99.90;;;;;;5033724;28;20427;-78
2021/04/21 09:16:41;;;;;;;40.10;34.87;;;14.10;99.90;;;;;;5036389;28;20478;-76
2021/04/21 09:19:14;;;;;;;39.43;33.50;;;14.40;99.90;;;;;;5017672;28;20429;-76
2021/04/21 09:21:41;;;;;;;36.20;31.70;;;14.50;99.90;;;;;;4998833;28;20457;-77
2021/04/21 09:24:12;;;;;;;38.60;31.07;;;14.60;99.90;;;;;;5014638;28;20516;-76
2021/04/21 09:26:39;;;;;;;40.13;30.77;;;14.80;99.90;;;;;;5018361;28;20880;-77
2021/04/21 09:29:05;;;;;;;35.20;31.43;;;15.10;99.90;;;;;;5036386;28;20434;-78
2021/04/21 09:31:33;;;;;;;39.07;32.40;;;;;;;;;;5033237;28;20818;-77
2021/04/21 09:34:18;;;;;;;43.40;30.90;;;15.70;99.90;;;;;;5034601;28;20494;-77
2021/04/21 09:36:47;;;;;;;35.07;31.47;;;15.70;99.90;;;;;;5016893;28;20470;-76
2021/04/21 09:39:18;;;;;;;34.23;30.77;;;15.90;99.90;;;;;;5023685;28;21007;-77
2021/04/21 09:41:50;;;;;;;33.37;29.73;;;16.00;99.90;;;;;;4997118;28;20980;-78
2021/04/21 09:44:24;;;;;;;31.27;28.10;;;16.10;99.90;;;;;;5026310;28;20428;-76
2021/04/21 09:46:50;;;;;;;30.60;27.60;;;16.20;98.30;;;;;;5016532;28;20452;-77
2021/04/21 09:49:29;;;;;;;34.70;28.37;;;16.20;99.60;;;;;;5012984;28;20445;-77
2021/04/21 09:52:21;;;;;;;30.87;26.17;;;16.30;97.50;;;;;;4995954;28;20468;-79
2021/04/21 09:54:49;;;;;;;28.70;25.60;;;16.40;98.00;;;;;;5013124;28;20962;-79
2021/04/21 09:57:27;;;;;;;30.70;24.80;;;16.60;96.40;;;;;;4996182;28;20496;-79
2021/04/21 10:00:06;;;;;;;27.27;24.47;;;16.70;95.20;;;;;;5013279;28;20429;-76
2021/04/21 10:02:42;;;;;;;28.97;25.07;;;16.70;93.30;;;;;;5012495;28;21019;-76
2021/04/21 10:05:29;;;;;;;29.67;26.70;;;16.70;94.00;;;;;;5025241;28;20460;-79
2021/04/21 10:08:21;;;;;;;28.53;25.67;;;16.60;94.00;;;;;;5034830;28;20475;-77
2021/04/21 10:11:06;;;;;;;25.53;22.67;;;16.50;90.90;;;;;;5045503;28;20864;-80
2021/04/21 10:13:43;;;;;;;25.60;23.00;;;16.50;91.20;;;;;;5052459;28;20439;-77
2021/04/21 10:16:11;;;;;;;25.00;22.50;;;16.60;91.30;;;;;;5035161;28;20553;-79
2021/04/21 10:18:38;;;;;;;25.57;23.07;;;16.80;90.00;;;;;;5052964;28;20466;-78
2021/04/21 10:21:13;;;;;;;24.50;21.97;;;17.00;88.40;;;;;;5054210;28;20420;-80
2021/04/21 10:23:44;;;;;;;25.80;23.30;;;16.90;88.50;;;;;;5037353;28;20412;-80
2021/04/21 10:26:14;;;;;;;26.20;23.47;;;16.90;90.00;;;;;;5014673;28;20461;-78
2021/04/21 10:28:42;;;;;;;30.03;27.17;;;17.10;87.80;;;;;;5012652;28;20428;-78
2021/04/21 10:31:12;;;;;;;30.93;27.80;;;17.00;87.00;;;;;;5011908;28;20460;-80
2021/04/21 10:33:39;;;;;;;30.70;26.40;;;16.80;89.90;;;;;;5032368;28;20440;-79
2021/04/21 10:36:09;;;;;;;31.93;28.43;;;16.80;90.70;;;;;;5035207;28;20479;-77
2021/04/21 10:38:40;;;;;;;31.60;28.50;;;16.90;88.70;;;;;;5054005;28;20872;-78
2021/04/21 10:41:27;;;;;;;32.17;28.83;;;16.80;90.00;;;;;;5034595;28;20432;-78
2021/04/21 10:44:15;;;;;;;32.77;28.37;;;16.70;85.70;;;;;;5006658;28;20527;-79
2021/04/21 10:47:04;;;;;;;31.53;28.13;;;16.70;91.30;;;;;;4995668;28;20460;-77
2021/04/21 10:49:34;;;;;;;37.60;30.37;;;16.70;90.20;;;;;;5024572;28;20431;-79
2021/04/21 10:52:14;;;;;;;36.27;30.67;;;16.70;90.10;;;;;;5016228;28;20460;-79
2021/04/21 10:54:42;;;;;;;33.47;29.87;;;16.80;90.00;;;;;;5014191;28;20474;-75
2021/04/21 10:57:27;;;;;;;36.07;32.27;;;16.70;92.10;;;;;;5033717;28;20464;-77
2021/04/21 11:00:07;;;;;;;32.27;28.80;;;16.60;91.70;;;;;;5036178;28;20436;-77
2021/04/21 11:02:40;;;;;;;31.90;28.63;;;16.60;91.60;;;;;;5031685;28;20888;-79
2021/04/21 11:05:09;;;;;;;33.93;28.60;;;16.60;90.00;;;;;;5041237;28;20956;-78
2021/04/21 11:07:37;;;;;;;32.73;29.40;;;16.40;90.70;;;;;;5039073;28;20458;-78
2021/04/21 11:10:09;;;;;;;31.43;28.13;;;16.30;91.90;;;;;;5037561;28;20881;-76
2021/04/21 11:12:56;;;;;;;29.37;26.60;;;16.20;90.60;;;;;;5034658;28;20461;-76
2021/04/21 11:15:36;;;;;;;26.33;23.53;;;16.10;90.80;;;;;;5052817;28;20563;-77
2021/04/21 11:18:09;;;;;;;27.50;24.80;;;16.10;91.20;;;;;;5038436;28;20900;-77
2021/04/21 11:20:48;;;;;;;27.00;24.20;;;16.10;90.50;;;;;;5016921;28;20448;-76
2021/04/21 11:29:04;;;;;;;28.60;24.30;;;16.10;90.60;;;;;;5056513;28;20843;-77
2021/04/21 11:31:48;;;;;;;26.83;23.90;;;16.10;88.20;;;;;;5035740;28;20483;-77
2021/04/21 11:34:38;;;;;;;25.17;22.53;;;16.20;85.40;;;;;;5012299;28;20433;-76
2021/04/21 11:37:28;;;;;;;25.67;22.93;;;16.40;88.40;;;;;;5013683;28;20483;-77
2021/04/21 11:39:57;;;;;;;23.80;21.27;;;16.30;88.80;;;;;;4998780;28;20445;-78
2021/04/21 11:42:39;;;;;;;24.60;22.00;;;16.40;87.60;;;;;;5012103;28;20469;-76
2021/04/21 11:45:06;;;;;;;23.20;20.80;;;16.40;87.60;;;;;;5011587;28;20456;-76
2021/04/21 11:47:41;;;;;;;30.57;19.93;;;16.50;90.90;;;;;;5013907;28;20469;-75
2021/04/21 11:50:30;;;;;;;24.90;22.30;;;16.50;84.40;;;;;;5031606;28;20487;-75
2021/04/21 11:53:02;;;;;;;28.83;22.30;;;16.70;86.20;;;;;;5004711;28;20860;-77
2021/04/21 11:55:30;;;;;;;23.93;21.43;;;16.80;85.10;;;;;;5030279;28;20467;-79
2021/04/21 11:58:01;;;;;;;24.93;22.33;;;16.90;86.10;;;;;;5033684;28;20480;-77
2021/04/21 12:00:51;;;;;;;23.37;21.03;;;17.00;81.50;;;;;;5035158;28;20894;-76
2021/04/21 12:03:37;;;;;;;26.37;22.63;;;17.10;80.70;;;;;;5030464;28;20474;-79
2021/04/21 12:06:09;;;;;;;26.17;21.50;;;17.20;82.90;;;;;;5050175;28;20567;-79
2021/04/21 12:08:41;;;;;;;23.30;20.80;;;17.30;79.70;;;;;;5053609;28;20791;-78
2021/04/21 12:11:08;;;;;;;22.30;20.27;;;17.40;73.20;;;;;;5015726;28;20455;-76
2021/04/21 12:13:36;;;;;;;30.43;20.23;;;17.40;72.30;;;;;;5011019;28;20525;-75
2021/04/21 12:16:12;;;;;;;22.30;20.13;;;17.40;79.10;;;;;;5010963;28;20537;-76
2021/04/21 12:18:49;;;;;;;21.83;19.00;;;17.60;66.80;;;;;;5019746;28;20468;-77
2021/04/21 12:21:17;;;;;;;20.20;18.17;;;17.60;73.30;;;;;;5032538;28;20420;-76
2021/04/21 12:24:10;;;;;;;20.87;18.70;;;17.70;74.20;;;;;;5035266;28;20426;-76
2021/04/21 12:26:38;;;;;;;20.07;18.17;;;17.90;69.70;;;;;;5032946;28;20484;-78
2021/04/21 12:29:08;;;;;;;20.97;19.07;;;17.90;72.70;;;;;;5036690;28;20790;-79
2021/04/21 12:31:36;;;;;;;20.47;18.40;;;17.90;73.20;;;;;;5033046;28;20485;-78
2021/04/21 12:34:05;;;;;;;17.93;16.00;;;17.90;77.50;;;;;;5035470;28;20440;-75
2021/04/21 12:36:34;;;;;;;18.33;15.97;;;17.90;74.80;;;;;;5038442;28;20483;-77
2021/04/21 12:39:07;;;;;;;20.10;17.57;;;17.80;73.50;;;;;;5059530;28;20481;-77
2021/04/21 12:41:36;;;;;;;16.63;15.00;;;17.90;75.40;;;;;;5016999;28;20576;-79
2021/04/21 12:44:21;;;;;;;22.40;16.60;;;17.90;69.50;;;;;;5015184;28;20472;-78
2021/04/21 12:47:09;;;;;;;20.33;16.60;;;17.90;66.00;;;;;;5015579;28;20835;-78
2021/04/21 12:49:41;;;;;;;19.77;16.50;;;17.80;76.00;;;;;;5023077;28;20456;-78
2021/04/21 12:52:18;;;;;;;21.77;16.53;;;17.80;69.50;;;;;;5035382;28;20475;-76
2021/04/21 12:54:46;;;;;;;17.20;15.37;;;17.80;73.90;;;;;;5030643;28;20438;-76
2021/04/21 12:57:14;;;;;;;17.27;15.60;;;17.80;70.30;;;;;;4998777;28;20505;-77
2021/04/21 12:59:52;;;;;;;17.27;15.53;;;17.70;69.80;;;;;;5018127;28;20532;-76
2021/04/21 13:02:42;;;;;;;17.33;15.50;;;17.70;74.00;;;;;;5015513;28;20520;-76
2021/04/21 13:05:11;;;;;;;18.17;15.83;;;17.60;72.50;;;;;;5006236;28;20456;-77
2021/04/21 13:07:37;;;;;;;16.47;14.77;;;17.70;73.00;;;;;;5036927;28;20460;-76
2021/04/21 13:10:12;;;;;;;17.60;16.00;;;17.70;72.60;;;;;;5043605;28;20982;-77
2021/04/21 13:12:39;;;;;;;18.83;17.07;;;17.60;72.40;;;;;;5055851;28;20462;-76
2021/04/21 13:15:18;;;;;;;18.33;16.37;;;17.50;72.20;;;;;;5037379;28;20486;-79
2021/04/21 13:17:53;;;;;;;17.40;15.70;;;17.40;70.20;;;;;;5038493;28;20471;-78
2021/04/21 13:20:53;;;;;;;18.73;15.80;;;17.40;71.40;;;;;;5039298;28;20439;-77